sensor_id;sensor_type;location;lat;lon;timestamp;temperature;humidity
37240;DHT22;23130;48.760;9.178;2022-12-29T00:01:19;8.90;99.90
37240;DHT22;23130;48.760;9.178;2022-12-29T00:03:48;8.90;99.90
37240;DHT22;23130;48.760;9.178;2022-12-29T00:06:13;9.00;99.90
37240;DHT22;23130;48.760;9.178;2022-12-29T00:08:39;9.00;99.90
37240;DHT22;23130;48.760;9.178;2022-12-29T00:11:11;9.00;99.90
37240;DHT22;23130;48.760;9.178;2022-12-29T00:13:37;9.00;99.90
37240;DHT22;23130;48.760;9.178;2022-12-29T00:16:21;9.10;99.90
37240;DHT22;23130;48.760;9.178;2022-12-29T00:18:47;9.00;99.90
37240;DHT22;23130;48.760;9.178;2022-12-29T00:21:17;9.10;99.90
37240;DHT22;23130;48.760;9.178;2022-12-29T00:24:02;9.10;99.90
37240;DHT22;23130;48.760;9.178;2022-12-29T00:29:39;9.20;99.90
37240;DHT22;23130;48.760;9.178;2022-12-29T00:32:23;9.30;99.90
37240;DHT22;23130;48.760;9.178;2022-12-29T00:35:09;9.30;99.90
37240;DHT22;23130;48.760;9.178;2022-12-29T00:37:41;9.30;99.90
37240;DHT22;23130;48.760;9.178;2022-12-29T00:40:26;9.30;99.90
37240;DHT22;23130;48.760;9.178;2022-12-29T00:43:10;9.30;99.90
37240;DHT22;23130;48.760;9.178;2022-12-29T00:45:55;9.40;99.90
37240;DHT22;23130;48.760;9.178;2022-12-29T00:48:21;9.40;99.90
37240;DHT22;23130;48.760;9.178;2022-12-29T00:51:06;9.40;99.90
37240;DHT22;23130;48.760;9.178;2022-12-29T00:53:33;9.50;99.90
37240;DHT22;23130;48.760;9.178;2022-12-29T00:55:59;9.50;99.90
37240;DHT22;23130;48.760;9.178;2022-12-29T00:58:27;9.50;99.90
37240;DHT22;23130;48.760;9.178;2022-12-29T01:01:01;9.50;99.90
37240;DHT22;23130;48.760;9.178;2022-12-29T01:03:26;9.50;99.90
37240;DHT22;23130;48.760;9.178;2022-12-29T01:05:52;9.60;99.90
37240;DHT22;23130;48.760;9.178;2022-12-29T01:08:17;9.50;99.90
37240;DHT22;23130;48.760;9.178;2022-12-29T01:10:43;9.50;99.90
37240;DHT22;23130;48.760;9.178;2022-12-29T01:13:08;9.50;99.90
37240;DHT22;23130;48.760;9.178;2022-12-29T01:15:34;9.60;99.90
37240;DHT22;23130;48.760;9.178;2022-12-29T01:17:59;9.60;99.90
37240;DHT22;23130;48.760;9.178;2022-12-29T01:20:25;9.60;99.90
37240;DHT22;23130;48.760;9.178;2022-12-29T01:22:52;9.60;99.90
37240;DHT22;23130;48.760;9.178;2022-12-29T01:25:18;9.60;99.90
37240;DHT22;23130;48.760;9.178;2022-12-29T01:27:43;9.60;99.90
37240;DHT22;23130;48.760;9.178;2022-12-29T01:30:09;9.60;99.90
37240;DHT22;23130;48.760;9.178;2022-12-29T01:32:35;9.60;99.90
37240;DHT22;23130;48.760;9.178;2022-12-29T01:35:00;9.70;99.90
37240;DHT22;23130;48.760;9.178;2022-12-29T01:37:26;9.70;99.90
37240;DHT22;23130;48.760;9.178;2022-12-29T01:39:51;9.60;99.90
37240;DHT22;23130;48.760;9.178;2022-12-29T01:42:19;9.60;99.90
37240;DHT22;23130;48.760;9.178;2022-12-29T01:44:55;9.60;99.90
37240;DHT22;23130;48.760;9.178;2022-12-29T01:50:11;9.60;99.90
37240;DHT22;23130;48.760;9.178;2022-12-29T01:52:43;9.50;99.90
37240;DHT22;23130;48.760;9.178;2022-12-29T01:55:10;9.50;99.90
37240;DHT22;23130;48.760;9.178;2022-12-29T01:57:39;9.50;99.90
37240;DHT22;23130;48.760;9.178;2022-12-29T02:00:11;9.50;99.90
37240;DHT22;23130;48.760;9.178;2022-12-29T02:02:40;9.50;99.90
37240;DHT22;23130;48.760;9.178;2022-12-29T02:05:11;9.50;99.90
37240;DHT22;23130;48.760;9.178;2022-12-29T02:07:39;9.50;99.90
37240;DHT22;23130;48.760;9.178;2022-12-29T02:10:06;9.50;99.90
37240;DHT22;23130;48.760;9.178;2022-12-29T02:12:31;9.50;99.90
37240;DHT22;23130;48.760;9.178;2022-12-29T02:14:59;9.60;99.90
37240;DHT22;23130;48.760;9.178;2022-12-29T02:18:00;9.60;99.90
37240;DHT22;23130;48.760;9.178;2022-12-29T02:31:35;9.60;99.90
37240;DHT22;23130;48.760;9.178;2022-12-29T02:36:43;9.60;99.90
37240;DHT22;23130;48.760;9.178;2022-12-29T02:39:23;9.60;99.90
37240;DHT22;23130;48.760;9.178;2022-12-29T02:42:14;9.70;99.90
37240;DHT22;23130;48.760;9.178;2022-12-29T02:47:45;9.70;99.90
37240;DHT22;23130;48.760;9.178;2022-12-29T02:50:20;9.70;99.90
37240;DHT22;23130;48.760;9.178;2022-12-29T02:53:09;9.80;99.90
37240;DHT22;23130;48.760;9.178;2022-12-29T02:55:35;9.80;99.90
37240;DHT22;23130;48.760;9.178;2022-12-29T02:58:19;9.80;99.90
37240;DHT22;23130;48.760;9.178;2022-12-29T03:07:00;9.90;99.90
37240;DHT22;23130;48.760;9.178;2022-12-29T03:15:26;9.90;99.90
37240;DHT22;23130;48.760;9.178;2022-12-29T03:18:23;9.80;99.90
37240;DHT22;23130;48.760;9.178;2022-12-29T03:20:58;9.80;99.90
37240;DHT22;23130;48.760;9.178;2022-12-29T03:23:27;9.80;99.90
37240;DHT22;23130;48.760;9.178;2022-12-29T03:25:57;9.80;99.90
37240;DHT22;23130;48.760;9.178;2022-12-29T03:28:28;9.90;99.90
37240;DHT22;23130;48.760;9.178;2022-12-29T03:30:55;9.90;99.90
37240;DHT22;23130;48.760;9.178;2022-12-29T03:33:25;9.90;99.90
37240;DHT22;23130;48.760;9.178;2022-12-29T03:35:54;10.00;99.90
37240;DHT22;23130;48.760;9.178;2022-12-29T03:40:59;10.00;99.90
37240;DHT22;23130;48.760;9.178;2022-12-29T03:43:26;10.10;99.90
37240;DHT22;23130;48.760;9.178;2022-12-29T03:45:53;10.10;99.90
37240;DHT22;23130;48.760;9.178;2022-12-29T03:48:19;10.10;99.90
37240;DHT22;23130;48.760;9.178;2022-12-29T03:50:44;10.30;99.90
37240;DHT22;23130;48.760;9.178;2022-12-29T03:53:10;10.30;99.90
37240;DHT22;23130;48.760;9.178;2022-12-29T03:55:35;10.30;99.90
37240;DHT22;23130;48.760;9.178;2022-12-29T03:58:01;10.40;99.90
37240;DHT22;23130;48.760;9.178;2022-12-29T04:00:26;10.50;99.90
37240;DHT22;23130;48.760;9.178;2022-12-29T04:02:52;10.40;99.90
37240;DHT22;23130;48.760;9.178;2022-12-29T04:05:17;10.40;99.90
37240;DHT22;23130;48.760;9.178;2022-12-29T04:07:43;10.30;99.90
37240;DHT22;23130;48.760;9.178;2022-12-29T04:10:08;10.10;99.90
37240;DHT22;23130;48.760;9.178;2022-12-29T04:12:34;10.00;99.90
37240;DHT22;23130;48.760;9.178;2022-12-29T04:15:00;9.90;99.90
37240;DHT22;23130;48.760;9.178;2022-12-29T04:17:25;9.80;99.90
37240;DHT22;23130;48.760;9.178;2022-12-29T04:19:51;9.80;99.90
37240;DHT22;23130;48.760;9.178;2022-12-29T04:22:16;9.80;99.90
37240;DHT22;23130;48.760;9.178;2022-12-29T04:24:42;9.80;99.90
37240;DHT22;23130;48.760;9.178;2022-12-29T04:27:07;9.70;99.90
37240;DHT22;23130;48.760;9.178;2022-12-29T04:29:33;9.60;99.90
37240;DHT22;23130;48.760;9.178;2022-12-29T04:31:59;9.60;99.90
37240;DHT22;23130;48.760;9.178;2022-12-29T04:34:24;9.60;99.90
37240;DHT22;23130;48.760;9.178;2022-12-29T04:36:50;9.60;99.90
37240;DHT22;23130;48.760;9.178;2022-12-29T04:39:15;9.70;99.90
37240;DHT22;23130;48.760;9.178;2022-12-29T04:41:41;9.70;99.90
37240;DHT22;23130;48.760;9.178;2022-12-29T04:44:06;9.80;99.90
37240;DHT22;23130;48.760;9.178;2022-12-29T04:46:32;9.80;99.90
37240;DHT22;23130;48.760;9.178;2022-12-29T04:48:58;9.80;99.90
37240;DHT22;23130;48.760;9.178;2022-12-29T04:51:23;9.90;99.90
37240;DHT22;23130;48.760;9.178;2022-12-29T04:53:49;9.90;99.90
37240;DHT22;23130;48.760;9.178;2022-12-29T04:56:14;9.90;99.90
37240;DHT22;23130;48.760;9.178;2022-12-29T04:58:40;9.80;99.90
37240;DHT22;23130;48.760;9.178;2022-12-29T05:01:05;9.90;99.90
37240;DHT22;23130;48.760;9.178;2022-12-29T05:03:31;10.00;99.90
37240;DHT22;23130;48.760;9.178;2022-12-29T05:05:57;10.00;99.90
37240;DHT22;23130;48.760;9.178;2022-12-29T05:08:23;10.00;99.90
37240;DHT22;23130;48.760;9.178;2022-12-29T05:10:52;10.00;99.90
37240;DHT22;23130;48.760;9.178;2022-12-29T05:13:18;10.00;99.90
37240;DHT22;23130;48.760;9.178;2022-12-29T05:15:51;10.00;99.90
37240;DHT22;23130;48.760;9.178;2022-12-29T05:18:17;10.00;99.90
37240;DHT22;23130;48.760;9.178;2022-12-29T05:20:42;10.10;99.90
37240;DHT22;23130;48.760;9.178;2022-12-29T05:23:08;10.00;99.90
37240;DHT22;23130;48.760;9.178;2022-12-29T05:25:34;10.00;99.90
37240;DHT22;23130;48.760;9.178;2022-12-29T05:27:59;9.90;99.90
37240;DHT22;23130;48.760;9.178;2022-12-29T05:30:25;9.80;99.90
37240;DHT22;23130;48.760;9.178;2022-12-29T05:32:50;9.70;99.90
37240;DHT22;23130;48.760;9.178;2022-12-29T05:35:19;9.60;99.90
37240;DHT22;23130;48.760;9.178;2022-12-29T05:37:44;9.60;99.90
37240;DHT22;23130;48.760;9.178;2022-12-29T05:40:10;9.50;99.90
37240;DHT22;23130;48.760;9.178;2022-12-29T05:42:36;9.50;99.90
37240;DHT22;23130;48.760;9.178;2022-12-29T05:45:02;9.60;99.90
37240;DHT22;23130;48.760;9.178;2022-12-29T05:47:27;9.60;99.90
37240;DHT22;23130;48.760;9.178;2022-12-29T05:49:53;9.60;99.90
37240;DHT22;23130;48.760;9.178;2022-12-29T05:52:18;9.70;99.90
37240;DHT22;23130;48.760;9.178;2022-12-29T05:54:44;9.70;99.90
37240;DHT22;23130;48.760;9.178;2022-12-29T05:57:09;9.70;99.90
37240;DHT22;23130;48.760;9.178;2022-12-29T05:59:35;9.80;99.90
37240;DHT22;23130;48.760;9.178;2022-12-29T06:02:01;9.90;99.90
37240;DHT22;23130;48.760;9.178;2022-12-29T06:04:26;10.00;99.90
37240;DHT22;23130;48.760;9.178;2022-12-29T06:06:52;10.10;99.90
37240;DHT22;23130;48.760;9.178;2022-12-29T06:09:17;10.10;99.90
37240;DHT22;23130;48.760;9.178;2022-12-29T06:11:43;10.20;99.90
37240;DHT22;23130;48.760;9.178;2022-12-29T06:14:08;10.10;99.90
37240;DHT22;23130;48.760;9.178;2022-12-29T06:16:34;10.10;99.90
37240;DHT22;23130;48.760;9.178;2022-12-29T06:19:00;10.00;99.90
37240;DHT22;23130;48.760;9.178;2022-12-29T06:21:26;10.00;99.90
37240;DHT22;23130;48.760;9.178;2022-12-29T06:23:51;10.00;99.90
37240;DHT22;23130;48.760;9.178;2022-12-29T06:26:17;9.90;99.90
37240;DHT22;23130;48.760;9.178;2022-12-29T06:28:42;9.80;99.90
37240;DHT22;23130;48.760;9.178;2022-12-29T06:31:11;9.80;99.90
37240;DHT22;23130;48.760;9.178;2022-12-29T06:33:38;9.60;99.90
37240;DHT22;23130;48.760;9.178;2022-12-29T06:36:04;9.60;99.90
37240;DHT22;23130;48.760;9.178;2022-12-29T06:38:29;9.60;99.90
37240;DHT22;23130;48.760;9.178;2022-12-29T06:40:55;9.70;99.90
37240;DHT22;23130;48.760;9.178;2022-12-29T06:43:20;9.70;99.90
37240;DHT22;23130;48.760;9.178;2022-12-29T06:45:46;9.70;99.90
37240;DHT22;23130;48.760;9.178;2022-12-29T06:48:11;9.60;99.90
37240;DHT22;23130;48.760;9.178;2022-12-29T06:50:37;9.60;99.90
37240;DHT22;23130;48.760;9.178;2022-12-29T06:53:03;9.60;99.90
37240;DHT22;23130;48.760;9.178;2022-12-29T06:55:28;9.60;99.90
37240;DHT22;23130;48.760;9.178;2022-12-29T06:57:55;9.60;99.90
37240;DHT22;23130;48.760;9.178;2022-12-29T07:00:22;9.70;99.90
37240;DHT22;23130;48.760;9.178;2022-12-29T07:02:47;9.80;99.90
37240;DHT22;23130;48.760;9.178;2022-12-29T07:05:13;9.80;99.90
37240;DHT22;23130;48.760;9.178;2022-12-29T07:07:39;9.70;99.90
37240;DHT22;23130;48.760;9.178;2022-12-29T07:10:04;9.60;99.90
37240;DHT22;23130;48.760;9.178;2022-12-29T07:12:30;9.70;99.90
37240;DHT22;23130;48.760;9.178;2022-12-29T07:14:55;9.70;99.90
37240;DHT22;23130;48.760;9.178;2022-12-29T07:17:21;9.70;99.90
37240;DHT22;23130;48.760;9.178;2022-12-29T07:19:47;9.60;99.90
37240;DHT22;23130;48.760;9.178;2022-12-29T07:22:12;9.60;99.90
37240;DHT22;23130;48.760;9.178;2022-12-29T07:24:38;9.50;99.90
37240;DHT22;23130;48.760;9.178;2022-12-29T07:27:03;9.40;99.90
37240;DHT22;23130;48.760;9.178;2022-12-29T07:29:29;9.50;99.90
37240;DHT22;23130;48.760;9.178;2022-12-29T07:31:55;9.50;99.90
37240;DHT22;23130;48.760;9.178;2022-12-29T07:34:20;9.50;99.90
37240;DHT22;23130;48.760;9.178;2022-12-29T07:36:46;9.50;99.90
37240;DHT22;23130;48.760;9.178;2022-12-29T07:39:12;9.50;99.90
37240;DHT22;23130;48.760;9.178;2022-12-29T07:41:37;9.50;99.90
37240;DHT22;23130;48.760;9.178;2022-12-29T07:44:03;9.50;99.90
37240;DHT22;23130;48.760;9.178;2022-12-29T07:46:29;9.50;99.90
37240;DHT22;23130;48.760;9.178;2022-12-29T07:48:54;9.50;99.90
37240;DHT22;23130;48.760;9.178;2022-12-29T07:51:20;9.50;99.90
37240;DHT22;23130;48.760;9.178;2022-12-29T07:53:45;9.60;99.90
37240;DHT22;23130;48.760;9.178;2022-12-29T07:56:11;9.60;99.90
37240;DHT22;23130;48.760;9.178;2022-12-29T07:58:36;9.70;99.90
37240;DHT22;23130;48.760;9.178;2022-12-29T08:01:02;9.80;99.90
37240;DHT22;23130;48.760;9.178;2022-12-29T08:03:27;9.90;99.90
37240;DHT22;23130;48.760;9.178;2022-12-29T08:05:53;10.00;99.90
37240;DHT22;23130;48.760;9.178;2022-12-29T08:08:18;10.00;99.90
37240;DHT22;23130;48.760;9.178;2022-12-29T08:10:45;10.00;99.90
37240;DHT22;23130;48.760;9.178;2022-12-29T08:13:10;10.10;99.90
37240;DHT22;23130;48.760;9.178;2022-12-29T08:15:37;10.10;99.90
37240;DHT22;23130;48.760;9.178;2022-12-29T08:18:03;10.20;99.90
37240;DHT22;23130;48.760;9.178;2022-12-29T08:20:29;10.20;99.90
37240;DHT22;23130;48.760;9.178;2022-12-29T08:22:54;10.30;99.90
37240;DHT22;23130;48.760;9.178;2022-12-29T08:25:20;10.30;99.90
37240;DHT22;23130;48.760;9.178;2022-12-29T08:27:46;10.30;99.90
37240;DHT22;23130;48.760;9.178;2022-12-29T08:30:12;10.30;99.90
37240;DHT22;23130;48.760;9.178;2022-12-29T08:32:38;10.40;99.90
37240;DHT22;23130;48.760;9.178;2022-12-29T08:35:03;10.40;99.90
37240;DHT22;23130;48.760;9.178;2022-12-29T08:37:29;10.50;99.90
37240;DHT22;23130;48.760;9.178;2022-12-29T08:39:55;10.60;99.90
37240;DHT22;23130;48.760;9.178;2022-12-29T08:42:20;10.60;99.90
37240;DHT22;23130;48.760;9.178;2022-12-29T08:44:46;10.60;99.90
37240;DHT22;23130;48.760;9.178;2022-12-29T08:47:11;10.60;99.90
37240;DHT22;23130;48.760;9.178;2022-12-29T08:49:37;10.60;99.90
37240;DHT22;23130;48.760;9.178;2022-12-29T08:52:03;10.60;99.90
37240;DHT22;23130;48.760;9.178;2022-12-29T08:54:29;10.60;99.90
37240;DHT22;23130;48.760;9.178;2022-12-29T08:56:56;10.60;99.90
37240;DHT22;23130;48.760;9.178;2022-12-29T08:59:21;10.60;99.90
37240;DHT22;23130;48.760;9.178;2022-12-29T09:01:47;10.60;99.90
37240;DHT22;23130;48.760;9.178;2022-12-29T09:04:12;10.50;99.90
37240;DHT22;23130;48.760;9.178;2022-12-29T09:06:38;10.60;99.90
37240;DHT22;23130;48.760;9.178;2022-12-29T09:09:03;10.50;99.90
37240;DHT22;23130;48.760;9.178;2022-12-29T09:11:29;10.60;99.90
37240;DHT22;23130;48.760;9.178;2022-12-29T09:13:55;10.60;99.90
37240;DHT22;23130;48.760;9.178;2022-12-29T09:16:22;10.70;99.90
37240;DHT22;23130;48.760;9.178;2022-12-29T09:18:47;10.80;99.90
37240;DHT22;23130;48.760;9.178;2022-12-29T09:21:13;10.90;99.90
37240;DHT22;23130;48.760;9.178;2022-12-29T09:23:39;11.10;99.90
37240;DHT22;23130;48.760;9.178;2022-12-29T09:26:06;11.10;99.90
37240;DHT22;23130;48.760;9.178;2022-12-29T09:28:33;11.20;99.90
37240;DHT22;23130;48.760;9.178;2022-12-29T09:30:59;11.40;99.90
37240;DHT22;23130;48.760;9.178;2022-12-29T09:33:25;11.50;99.90
37240;DHT22;23130;48.760;9.178;2022-12-29T09:35:57;11.60;99.90
37240;DHT22;23130;48.760;9.178;2022-12-29T09:38:24;11.80;99.90
37240;DHT22;23130;48.760;9.178;2022-12-29T09:40:53;11.90;99.90
37240;DHT22;23130;48.760;9.178;2022-12-29T09:45:57;11.90;99.90
37240;DHT22;23130;48.760;9.178;2022-12-29T09:48:32;12.10;99.90
37240;DHT22;23130;48.760;9.178;2022-12-29T09:51:03;12.20;99.90
37240;DHT22;23130;48.760;9.178;2022-12-29T09:53:42;12.20;99.90
37240;DHT22;23130;48.760;9.178;2022-12-29T09:56:17;12.30;99.90
37240;DHT22;23130;48.760;9.178;2022-12-29T09:58:54;12.50;99.90
37240;DHT22;23130;48.760;9.178;2022-12-29T10:01:36;12.70;99.90
37240;DHT22;23130;48.760;9.178;2022-12-29T10:04:04;12.80;99.90
37240;DHT22;23130;48.760;9.178;2022-12-29T10:06:42;12.90;99.90
37240;DHT22;23130;48.760;9.178;2022-12-29T10:25:33;12.40;99.90
37240;DHT22;23130;48.760;9.178;2022-12-29T10:28:04;12.50;99.90
37240;DHT22;23130;48.760;9.178;2022-12-29T10:30:33;12.60;99.90
37240;DHT22;23130;48.760;9.178;2022-12-29T10:33:03;12.60;99.90
37240;DHT22;23130;48.760;9.178;2022-12-29T10:35:38;12.60;99.90
37240;DHT22;23130;48.760;9.178;2022-12-29T10:38:27;12.60;99.90
37240;DHT22;23130;48.760;9.178;2022-12-29T10:43:48;12.90;99.90
37240;DHT22;23130;48.760;9.178;2022-12-29T10:46:17;13.10;99.90
37240;DHT22;23130;48.760;9.178;2022-12-29T10:48:44;13.30;99.90
37240;DHT22;23130;48.760;9.178;2022-12-29T10:51:25;13.40;99.90
37240;DHT22;23130;48.760;9.178;2022-12-29T10:54:18;13.50;99.90
37240;DHT22;23130;48.760;9.178;2022-12-29T10:56:54;13.70;99.90
37240;DHT22;23130;48.760;9.178;2022-12-29T10:59:29;13.90;99.90
37240;DHT22;23130;48.760;9.178;2022-12-29T11:07:23;14.20;99.90
37240;DHT22;23130;48.760;9.178;2022-12-29T11:09:51;14.10;99.90
37240;DHT22;23130;48.760;9.178;2022-12-29T11:12:26;14.10;99.90
37240;DHT22;23130;48.760;9.178;2022-12-29T11:17:46;13.80;99.90
37240;DHT22;23130;48.760;9.178;2022-12-29T11:20:34;13.70;99.90
37240;DHT22;23130;48.760;9.178;2022-12-29T11:23:01;13.70;99.90
37240;DHT22;23130;48.760;9.178;2022-12-29T11:25:28;13.70;99.90
37240;DHT22;23130;48.760;9.178;2022-12-29T11:27:59;13.60;99.90
37240;DHT22;23130;48.760;9.178;2022-12-29T11:30:29;13.60;99.90
37240;DHT22;23130;48.760;9.178;2022-12-29T11:32:55;13.50;99.90
37240;DHT22;23130;48.760;9.178;2022-12-29T11:35:36;13.40;99.90
37240;DHT22;23130;48.760;9.178;2022-12-29T11:38:04;13.40;99.90
37240;DHT22;23130;48.760;9.178;2022-12-29T11:40:31;13.40;99.90
37240;DHT22;23130;48.760;9.178;2022-12-29T11:43:00;13.30;99.90
37240;DHT22;23130;48.760;9.178;2022-12-29T11:45:33;13.10;99.90
37240;DHT22;23130;48.760;9.178;2022-12-29T11:48:06;12.90;99.90
37240;DHT22;23130;48.760;9.178;2022-12-29T11:50:35;12.80;99.90
37240;DHT22;23130;48.760;9.178;2022-12-29T11:53:07;12.60;99.90
37240;DHT22;23130;48.760;9.178;2022-12-29T11:55:33;12.60;99.90
37240;DHT22;23130;48.760;9.178;2022-12-29T11:58:01;12.60;99.90
37240;DHT22;23130;48.760;9.178;2022-12-29T12:00:29;12.60;99.90
37240;DHT22;23130;48.760;9.178;2022-12-29T12:03:18;12.60;99.90
37240;DHT22;23130;48.760;9.178;2022-12-29T12:05:49;12.60;99.90
37240;DHT22;23130;48.760;9.178;2022-12-29T12:08:37;12.50;99.90
37240;DHT22;23130;48.760;9.178;2022-12-29T12:11:19;12.50;99.90
37240;DHT22;23130;48.760;9.178;2022-12-29T12:14:11;12.60;99.90
37240;DHT22;23130;48.760;9.178;2022-12-29T12:16:46;12.60;99.90
37240;DHT22;23130;48.760;9.178;2022-12-29T12:19:32;12.50;99.90
37240;DHT22;23130;48.760;9.178;2022-12-29T12:22:39;12.50;99.90
37240;DHT22;23130;48.760;9.178;2022-12-29T12:30:21;12.50;99.90
37240;DHT22;23130;48.760;9.178;2022-12-29T12:38:30;12.70;99.90
37240;DHT22;23130;48.760;9.178;2022-12-29T12:44:24;12.80;99.90
37240;DHT22;23130;48.760;9.178;2022-12-29T13:00:59;12.00;99.90
37240;DHT22;23130;48.760;9.178;2022-12-29T13:03:50;12.10;99.90
37240;DHT22;23130;48.760;9.178;2022-12-29T13:17:26;12.30;99.90
37240;DHT22;23130;48.760;9.178;2022-12-29T13:22:58;12.40;99.90
37240;DHT22;23130;48.760;9.178;2022-12-29T13:36:03;12.40;99.90
37240;DHT22;23130;48.760;9.178;2022-12-29T13:41:37;12.30;99.90
37240;DHT22;23130;48.760;9.178;2022-12-29T13:44:05;12.20;99.90
37240;DHT22;23130;48.760;9.178;2022-12-29T13:46:37;12.20;99.90
37240;DHT22;23130;48.760;9.178;2022-12-29T13:51:53;12.10;99.90
37240;DHT22;23130;48.760;9.178;2022-12-29T13:54:35;12.10;99.90
37240;DHT22;23130;48.760;9.178;2022-12-29T14:00:24;12.00;99.90
37240;DHT22;23130;48.760;9.178;2022-12-29T14:03:23;12.10;99.90
37240;DHT22;23130;48.760;9.178;2022-12-29T14:06:14;12.00;99.90
37240;DHT22;23130;48.760;9.178;2022-12-29T14:08:40;12.00;99.90
37240;DHT22;23130;48.760;9.178;2022-12-29T14:11:11;12.00;99.90
37240;DHT22;23130;48.760;9.178;2022-12-29T14:13:43;12.10;99.90
37240;DHT22;23130;48.760;9.178;2022-12-29T14:16:28;12.00;99.90
37240;DHT22;23130;48.760;9.178;2022-12-29T14:18:56;12.00;99.90
37240;DHT22;23130;48.760;9.178;2022-12-29T14:21:28;12.00;99.90
37240;DHT22;23130;48.760;9.178;2022-12-29T14:26:45;11.80;99.90
37240;DHT22;23130;48.760;9.178;2022-12-29T14:31:53;11.60;99.90
37240;DHT22;23130;48.760;9.178;2022-12-29T14:34:26;11.50;99.90
37240;DHT22;23130;48.760;9.178;2022-12-29T14:42:06;11.50;99.90
37240;DHT22;23130;48.760;9.178;2022-12-29T14:44:32;11.40;99.90
37240;DHT22;23130;48.760;9.178;2022-12-29T14:47:01;11.20;99.90
37240;DHT22;23130;48.760;9.178;2022-12-29T14:49:40;11.20;99.90
37240;DHT22;23130;48.760;9.178;2022-12-29T14:52:27;11.10;99.90
37240;DHT22;23130;48.760;9.178;2022-12-29T14:58:22;11.10;99.90
37240;DHT22;23130;48.760;9.178;2022-12-29T15:00:51;11.10;99.90
37240;DHT22;23130;48.760;9.178;2022-12-29T15:03:24;11.00;99.90
37240;DHT22;23130;48.760;9.178;2022-12-29T15:05:57;10.90;99.90
37240;DHT22;23130;48.760;9.178;2022-12-29T15:08:26;10.80;99.90
37240;DHT22;23130;48.760;9.178;2022-12-29T15:10:56;10.70;99.90
37240;DHT22;23130;48.760;9.178;2022-12-29T15:13:35;10.80;99.90
37240;DHT22;23130;48.760;9.178;2022-12-29T15:16:01;10.70;99.90
37240;DHT22;23130;48.760;9.178;2022-12-29T15:18:30;10.70;99.90
37240;DHT22;23130;48.760;9.178;2022-12-29T15:21:01;10.70;99.90
37240;DHT22;23130;48.760;9.178;2022-12-29T15:23:28;10.70;99.90
37240;DHT22;23130;48.760;9.178;2022-12-29T15:26:21;10.60;99.90
37240;DHT22;23130;48.760;9.178;2022-12-29T15:28:52;10.70;99.90
37240;DHT22;23130;48.760;9.178;2022-12-29T15:31:23;10.60;99.90
37240;DHT22;23130;48.760;9.178;2022-12-29T15:33:52;10.60;99.90
37240;DHT22;23130;48.760;9.178;2022-12-29T15:36:26;10.60;99.90
37240;DHT22;23130;48.760;9.178;2022-12-29T15:38:53;10.50;99.90
37240;DHT22;23130;48.760;9.178;2022-12-29T15:41:31;10.50;99.90
37240;DHT22;23130;48.760;9.178;2022-12-29T15:44:23;10.50;99.90
37240;DHT22;23130;48.760;9.178;2022-12-29T15:46:50;10.50;99.90
37240;DHT22;23130;48.760;9.178;2022-12-29T15:49:16;10.50;99.90
37240;DHT22;23130;48.760;9.178;2022-12-29T15:51:42;10.60;99.90
37240;DHT22;23130;48.760;9.178;2022-12-29T15:54:20;10.60;99.90
37240;DHT22;23130;48.760;9.178;2022-12-29T15:56:47;10.70;99.90
37240;DHT22;23130;48.760;9.178;2022-12-29T15:59:33;10.70;99.90
37240;DHT22;23130;48.760;9.178;2022-12-29T16:02:01;10.80;99.90
37240;DHT22;23130;48.760;9.178;2022-12-29T16:04:30;10.90;99.90
37240;DHT22;23130;48.760;9.178;2022-12-29T16:07:04;10.90;99.90
37240;DHT22;23130;48.760;9.178;2022-12-29T16:09:41;11.00;99.90
37240;DHT22;23130;48.760;9.178;2022-12-29T16:12:18;10.80;99.90
37240;DHT22;23130;48.760;9.178;2022-12-29T16:14:51;10.50;99.90
37240;DHT22;23130;48.760;9.178;2022-12-29T16:17:20;10.30;99.90
37240;DHT22;23130;48.760;9.178;2022-12-29T16:22:41;9.80;99.90
37240;DHT22;23130;48.760;9.178;2022-12-29T16:25:23;9.60;99.90
37240;DHT22;23130;48.760;9.178;2022-12-29T16:27:50;9.40;99.90
37240;DHT22;23130;48.760;9.178;2022-12-29T16:30:25;9.30;99.90
37240;DHT22;23130;48.760;9.178;2022-12-29T16:32:54;9.20;99.90
37240;DHT22;23130;48.760;9.178;2022-12-29T16:35:22;9.10;99.90
37240;DHT22;23130;48.760;9.178;2022-12-29T16:37:49;9.10;99.90
37240;DHT22;23130;48.760;9.178;2022-12-29T16:40:31;9.00;99.90
37240;DHT22;23130;48.760;9.178;2022-12-29T16:42:59;8.90;99.90
37240;DHT22;23130;48.760;9.178;2022-12-29T16:46:06;8.90;99.90
37240;DHT22;23130;48.760;9.178;2022-12-29T16:48:32;8.90;99.90
37240;DHT22;23130;48.760;9.178;2022-12-29T16:51:16;8.80;99.90
37240;DHT22;23130;48.760;9.178;2022-12-29T16:53:47;8.80;99.90
37240;DHT22;23130;48.760;9.178;2022-12-29T16:56:23;8.80;99.90
37240;DHT22;23130;48.760;9.178;2022-12-29T16:58:56;8.70;99.90
37240;DHT22;23130;48.760;9.178;2022-12-29T17:01:23;8.60;99.90
37240;DHT22;23130;48.760;9.178;2022-12-29T17:03:54;8.60;99.90
37240;DHT22;23130;48.760;9.178;2022-12-29T17:06:22;8.60;99.90
37240;DHT22;23130;48.760;9.178;2022-12-29T17:08:49;8.60;99.90
37240;DHT22;23130;48.760;9.178;2022-12-29T17:11:30;8.60;99.90
37240;DHT22;23130;48.760;9.178;2022-12-29T17:17:02;8.50;99.90
37240;DHT22;23130;48.760;9.178;2022-12-29T17:19:36;8.50;99.90
37240;DHT22;23130;48.760;9.178;2022-12-29T17:22:11;8.40;99.90
37240;DHT22;23130;48.760;9.178;2022-12-29T17:24:38;8.30;99.90
37240;DHT22;23130;48.760;9.178;2022-12-29T17:27:04;8.30;99.90
37240;DHT22;23130;48.760;9.178;2022-12-29T17:29:38;8.30;99.90
37240;DHT22;23130;48.760;9.178;2022-12-29T17:32:09;8.20;99.90
37240;DHT22;23130;48.760;9.178;2022-12-29T17:34:37;8.20;99.90
37240;DHT22;23130;48.760;9.178;2022-12-29T17:37:02;8.20;99.90
37240;DHT22;23130;48.760;9.178;2022-12-29T17:39:28;8.10;99.90
37240;DHT22;23130;48.760;9.178;2022-12-29T17:41:54;8.20;99.90
37240;DHT22;23130;48.760;9.178;2022-12-29T17:44:20;8.20;99.90
37240;DHT22;23130;48.760;9.178;2022-12-29T17:46:47;8.20;99.90
37240;DHT22;23130;48.760;9.178;2022-12-29T17:49:15;8.20;99.90
37240;DHT22;23130;48.760;9.178;2022-12-29T17:51:42;8.10;99.90
37240;DHT22;23130;48.760;9.178;2022-12-29T17:54:28;8.20;99.90
37240;DHT22;23130;48.760;9.178;2022-12-29T17:56:54;8.20;99.90
37240;DHT22;23130;48.760;9.178;2022-12-29T17:59:19;8.20;99.90
37240;DHT22;23130;48.760;9.178;2022-12-29T18:01:47;8.10;99.90
37240;DHT22;23130;48.760;9.178;2022-12-29T18:04:18;8.10;99.90
37240;DHT22;23130;48.760;9.178;2022-12-29T18:06:45;8.10;99.90
37240;DHT22;23130;48.760;9.178;2022-12-29T18:09:11;8.10;99.90
37240;DHT22;23130;48.760;9.178;2022-12-29T18:11:41;8.10;99.90
37240;DHT22;23130;48.760;9.178;2022-12-29T18:14:15;8.10;99.90
37240;DHT22;23130;48.760;9.178;2022-12-29T18:16:41;8.10;99.90
37240;DHT22;23130;48.760;9.178;2022-12-29T18:19:07;8.10;99.90
37240;DHT22;23130;48.760;9.178;2022-12-29T18:21:34;8.20;99.90
37240;DHT22;23130;48.760;9.178;2022-12-29T18:24:00;8.20;99.90